Time;durP1;ratioP1;P1;durP2;ratioP2;P2;SDS_P1;SDS_P2;PMS_P1;PMS_P2;Temp;Humidity;BMP_temperature;BMP_pressure;BME280_temperature;BME280_humidity;BME280_pressure;Samples;Min_cycle;Max_cycle;Signal;HPM_P1;HPM_P2
2021/01/20 00:02:24;;;;;;;32.63;15.10;;;;;;;0.96;91.93;99333.03;5093675;28;20043;-72
2021/01/20 00:04:53;;;;;;;33.33;15.88;;;;;;;0.86;91.97;99310.09;5093730;28;20048;-71
2021/01/20 00:07:21;;;;;;;35.93;16.03;;;;;;;1.00;92.27;99339.88;5092510;28;20048;-71
2021/01/20 00:09:48;;;;;;;32.72;16.70;;;;;;;1.02;92.22;99339.91;5093598;28;20052;-72
2021/01/20 00:12:16;;;;;;;34.35;16.27;;;;;;;1.00;92.06;99339.88;5093636;28;20044;-71
2021/01/20 00:14:44;;;;;;;35.15;15.88;;;;;;;0.99;92.51;99333.13;5093547;28;20082;-71
2021/01/20 00:17:14;;;;;;;34.13;15.60;;;;;;;0.99;92.33;99338.16;5093950;28;20059;-71
2021/01/20 00:19:43;;;;;;;36.25;16.05;;;;;;;1.00;92.46;99342.38;5097997;28;20072;-71
2021/01/20 00:22:12;;;;;;;33.05;15.57;;;;;;;1.00;92.15;99344.91;5097926;28;20044;-72
2021/01/20 00:24:40;;;;;;;;;;;;;;;1.01;92.00;99336.53;5098403;28;20044;-71
2021/01/20 00:27:09;;;;;;;34.85;15.48;;;;;;;1.01;92.15;99344.06;5097642;28;19927;-70
2021/01/20 00:29:36;;;;;;;36.58;16.52;;;;;;;0.99;91.70;99343.19;5097530;28;20500;-71
2021/01/20 00:32:04;;;;;;;35.15;17.20;;;;;;;1.00;92.12;99344.91;5097623;28;20131;-71
2021/01/20 00:34:32;;;;;;;37.30;17.38;;;;;;;0.99;92.31;99343.19;5097795;28;20059;-71
2021/01/20 00:37:00;;;;;;;37.80;16.52;;;;;;;0.98;91.88;99349.03;5097489;28;20074;-70
2021/01/20 00:39:29;;;;;;;41.38;17.50;;;;;;;1.01;92.05;99350.78;5097615;28;20044;-71
2021/01/20 00:41:57;;;;;;;38.67;16.88;;;;;;;0.99;92.25;99353.22;5097394;28;20056;-71
2021/01/20 00:44:25;;;;;;;37.42;17.10;;;;;;;0.89;91.90;99337.84;5097641;28;20056;-71
2021/01/20 00:46:52;;;;;;;35.00;16.20;;;;;;;0.76;92.03;99331.56;5097234;28;20474;-72
2021/01/20 00:49:21;;;;;;;32.35;15.70;;;;;;;0.94;92.25;99367.28;5097221;28;20059;-71
2021/01/20 00:51:49;;;;;;;36.95;16.77;;;;;;;0.95;91.89;99376.56;5095942;28;20055;-72
2021/01/20 00:54:18;;;;;;;38.28;18.25;;;;;;;0.91;92.08;99364.69;5096274;28;20044;-72
2021/01/20 00:56:47;;;;;;;42.55;18.02;;;;;;;0.96;92.17;99372.38;5095903;28;20084;-72
2021/01/20 00:59:15;;;;;;;35.53;17.02;;;;;;;0.94;92.32;99379.00;5095889;28;20494;-71
2021/01/20 01:01:42;;;;;;;34.78;17.20;;;;;;;0.93;92.26;99377.31;5095788;28;20048;-71
2021/01/20 01:04:25;;;;;;;36.45;17.88;;;;;;;0.92;92.06;99370.56;5097001;28;20056;-72
2021/01/20 01:06:53;;;;;;;41.00;17.52;;;;;;;0.93;91.73;99368.13;5096875;28;20048;-71
2021/01/20 01:09:20;;;;;;;35.88;17.80;;;;;;;0.94;92.01;99358.91;5096888;28;20047;-72
2021/01/20 01:11:49;;;;;;;39.58;18.23;;;;;;;0.76;91.98;99339.09;5095565;28;20493;-72
2021/01/20 01:14:17;;;;;;;37.80;17.45;;;;;;;0.90;91.76;99362.97;5095597;28;20083;-72
2021/01/20 01:16:56;;;;;;;41.15;17.77;;;;;;;0.81;92.23;99342.59;5096733;28;20051;-71
2021/01/20 01:19:35;;;;;;;39.67;17.73;;;;;;;0.89;92.11;99371.31;5095507;28;20082;-71
2021/01/20 01:22:03;;;;;;;39.10;17.80;;;;;;;0.89;91.87;99371.31;5095397;28;20052;-72
2021/01/20 01:24:34;;;;;;;41.03;18.33;;;;;;;0.90;92.08;99362.97;5095447;28;20486;-71
2021/01/20 01:27:05;;;;;;;39.88;18.90;;;;;;;0.90;92.07;99362.97;5095882;28;20071;-72
2021/01/20 01:29:33;;;;;;;41.35;17.80;;;;;;;0.91;92.24;99353.81;5094071;28;20127;-72
2021/01/20 01:32:07;;;;;;;38.83;16.88;;;;;;;0.85;92.14;99349.44;5095843;28;20052;-72
2021/01/20 01:34:37;;;;;;;40.10;17.25;;;;;;;0.92;92.37;99366.41;5095193;28;20397;-72
2021/01/20 01:37:08;;;;;;;38.83;17.98;;;;;;;0.88;91.98;99367.13;5095208;28;20055;-72
2021/01/20 01:39:47;;;;;;;37.10;16.45;;;;;;;0.84;92.41;99375.34;5096233;28;20081;-72
2021/01/20 01:42:25;;;;;;;37.80;17.58;;;;;;;0.48;92.25;99319.75;5095038;28;20048;-72
2021/01/20 01:44:54;;;;;;;42.05;17.30;;;;;;;0.86;92.18;99380.44;5095019;28;20052;-71
2021/01/20 01:47:23;;;;;;;32.60;14.65;;;;;;;0.77;92.20;99370.91;5096443;28;20557;-72
2021/01/20 01:50:01;;;;;;;37.72;17.13;;;;;;;0.89;92.27;99386.38;5096386;28;20048;-72
2021/01/20 01:52:34;;;;;;;41.65;18.65;;;;;;;0.91;92.37;99387.28;5094910;28;20169;-72
2021/01/20 01:55:13;;;;;;;40.80;19.75;;;;;;;0.39;92.07;99291.00;5095980;28;20048;-72
2021/01/20 01:57:53;;;;;;;40.00;19.87;;;;;;;0.95;92.33;99384.09;5095930;28;20056;-72
2021/01/20 02:00:23;;;;;;;39.13;19.85;;;;;;;0.95;92.08;99386.59;5094652;28;20047;-72
2021/01/20 02:03:02;;;;;;;44.27;19.80;;;;;;;0.94;92.38;99379.84;5096245;28;20067;-72
2021/01/20 02:05:30;;;;;;;44.80;20.60;;;;;;;0.93;92.31;99385.69;5094840;28;20048;-72
2021/01/20 02:08:03;;;;;;;46.57;20.63;;;;;;;0.93;92.35;99388.22;5094567;28;20052;-72
2021/01/20 02:10:36;;;;;;;44.40;20.70;;;;;;;0.94;92.60;99384.00;5094493;28;20338;-72
2021/01/20 02:13:27;;;;;;;46.97;21.17;;;;;;;0.92;92.71;99381.47;5094507;28;20502;-72
2021/01/20 02:16:11;;;;;;;42.63;18.50;;;;;;;0.87;92.22;99377.94;5095570;28;20040;-72
2021/01/20 02:18:42;;;;;;;43.17;20.00;;;;;;;0.92;92.63;99378.94;5095555;28;20064;-72
2021/01/20 02:21:43;;;;;;;42.17;20.70;;;;;;;0.82;92.46;99366.91;5094304;28;20040;-71
2021/01/20 02:24:30;;;;;;;45.63;19.58;;;;;;;0.90;92.35;99383.09;5094082;28;20137;-72
2021/01/20 02:27:19;;;;;;;40.15;18.45;;;;;;;0.91;92.78;99383.94;5095332;28;20118;-72
2021/01/20 02:30:06;;;;;;;43.83;19.45;;;;;;;0.88;92.31;99387.22;5094397;28;20043;-71
2021/01/20 02:32:50;;;;;;;44.67;19.45;;;;;;;0.89;92.39;99388.91;5095271;28;20119;-72
2021/01/20 02:35:25;;;;;;;49.05;20.60;;;;;;;0.90;92.13;99392.25;5077184;28;20490;-72
2021/01/20 02:37:54;;;;;;;;;;;;;;;0.88;92.53;99383.84;5094560;28;20089;-71
2021/01/20 02:40:35;;;;;;;40.15;18.33;;;;;;;0.88;92.51;99388.84;5110566;28;19920;-72
2021/01/20 02:43:10;;;;;;;49.10;20.55;;;;;;;0.89;92.24;99381.38;5094093;28;20378;-72
2021/01/20 02:45:50;;;;;;;43.13;20.70;;;;;;;0.91;92.71;99394.81;5095100;28;20044;-72
2021/01/20 02:48:20;;;;;;;50.03;20.65;;;;;;;0.92;92.42;99396.53;5094058;28;20400;-72
2021/01/20 02:50:49;;;;;;;46.75;20.20;;;;;;;0.91;92.58;99388.97;5094067;28;20131;-72
2021/01/20 02:53:20;;;;;;;51.03;21.17;;;;;;;0.93;92.76;99392.38;5093947;28;20143;-72
2021/01/20 02:55:57;;;;;;;48.13;21.67;;;;;;;0.95;92.62;99396.66;5094906;28;20044;-72
2021/01/20 02:58:48;;;;;;;47.03;21.20;;;;;;;0.94;92.28;99387.38;5094779;28;20052;-72
2021/01/20 03:01:30;;;;;;;43.45;20.20;;;;;;;0.94;92.74;99379.84;5094750;28;20040;-72
2021/01/20 03:04:01;;;;;;;48.58;21.13;;;;;;;0.93;92.47;99382.31;5094659;28;20044;-72
2021/01/20 03:06:31;;;;;;;55.20;22.60;;;;;;;0.92;92.44;99381.47;5094620;28;20048;-72
2021/01/20 03:08:59;;;;;;;49.78;21.92;;;;;;;0.92;92.81;99386.50;5094533;28;20512;-72
2021/01/20 03:11:28;;;;;;;52.70;21.77;;;;;;;0.94;92.75;99397.44;5094770;28;20055;-72
2021/01/20 03:13:56;;;;;;;49.42;22.13;;;;;;;0.94;92.50;99396.56;5094437;28;20040;-72
2021/01/20 03:16:28;;;;;;;48.03;20.88;;;;;;;0.93;93.03;99403.28;5076129;28;20063;-73
2021/01/20 03:18:59;;;;;;;47.78;19.70;;;;;;;0.54;92.41;99341.69;5094319;28;20048;-73
2021/01/20 03:21:26;;;;;;;49.33;20.77;;;;;;;0.92;92.55;99411.59;5094364;28;20060;-73
2021/01/20 03:23:54;;;;;;;51.30;20.95;;;;;;;0.91;92.89;99404.88;5094240;28;20101;-73
2021/01/20 03:26:21;;;;;;;48.95;21.88;;;;;;;0.46;92.62;99328.88;5094212;28;20052;-73
2021/01/20 03:28:49;;;;;;;43.13;19.70;;;;;;;0.89;92.68;99398.13;5094206;28;20048;-72
2021/01/20 03:31:17;;;;;;;44.15;20.00;;;;;;;0.87;92.63;99399.69;5094123;28;20058;-72
2021/01/20 03:33:45;;;;;;;46.95;21.10;;;;;;;0.84;92.70;99400.44;5094103;28;20075;-72
2021/01/20 03:36:14;;;;;;;53.53;21.42;;;;;;;0.83;92.88;99407.94;5094070;28;20062;-72
2021/01/20 03:38:42;;;;;;;48.28;20.25;;;;;;;0.76;92.89;99391.81;5094059;28;20067;-72
2021/01/20 03:41:09;;;;;;;44.60;20.17;;;;;;;0.84;92.66;99402.97;5093886;28;20048;-72
2021/01/20 03:43:37;;;;;;;50.90;21.67;;;;;;;0.83;92.62;99400.41;5094331;28;20048;-72
2021/01/20 03:46:05;;;;;;;46.97;20.83;;;;;;;0.84;92.40;99397.94;5093948;28;20059;-72
2021/01/20 03:48:32;;;;;;;45.17;21.55;;;;;;;0.84;93.05;99397.09;5093999;28;20044;-72
2021/01/20 03:51:00;;;;;;;55.58;21.40;;;;;;;0.81;92.80;99402.03;5093831;28;20386;-71
2021/01/20 03:53:29;;;;;;;48.35;21.42;;;;;;;0.81;92.73;99410.41;5093261;28;20052;-72
2021/01/20 03:55:57;;;;;;;45.80;20.63;;;;;;;0.81;92.37;99402.88;5093792;28;20574;-72
2021/01/20 03:58:25;;;;;;;48.80;21.17;;;;;;;0.80;92.76;99403.66;5093808;28;20077;-72
2021/01/20 04:00:53;;;;;;;47.10;21.70;;;;;;;0.46;92.93;99345.59;5092527;28;20090;-72
2021/01/20 04:03:21;;;;;;;51.13;21.90;;;;;;;0.80;92.89;99391.13;5093645;28;20052;-72
2021/01/20 04:06:00;;;;;;;48.90;20.67;;;;;;;0.73;92.61;99384.19;5093817;28;20044;-72
2021/01/20 04:08:30;;;;;;;44.30;20.90;;;;;;;0.72;93.02;99392.50;5093628;28;20052;-72
2021/01/20 04:10:59;;;;;;;50.08;22.65;;;;;;;0.70;92.77;99391.59;5094043;28;20130;-71
2021/01/20 04:13:28;;;;;;;55.63;23.98;;;;;;;0.80;92.91;99403.66;5092454;28;20505;-72
2021/01/20 04:15:56;;;;;;;53.35;22.10;;;;;;;0.78;92.75;99397.75;5093653;28;20135;-72
2021/01/20 04:18:24;;;;;;;62.00;22.95;;;;;;;0.80;92.67;99386.09;5093591;28;20127;-71
2021/01/20 04:20:51;;;;;;;48.83;21.73;;;;;;;0.80;92.55;99391.13;5093522;28;20052;-71
2021/01/20 04:23:19;;;;;;;49.15;21.75;;;;;;;0.77;92.72;99391.00;5093526;28;20097;-71
2021/01/20 04:25:48;;;;;;;50.90;22.50;;;;;;;0.40;92.76;99332.84;5093884;28;20059;-71
2021/01/20 04:28:17;;;;;;;50.03;21.60;;;;;;;0.76;92.40;99396.84;5093438;28;20040;-71
2021/01/20 04:30:45;;;;;;;49.70;21.77;;;;;;;0.39;92.76;99341.19;5093441;28;20040;-71
2021/01/20 04:33:13;;;;;;;47.38;21.58;;;;;;;0.74;93.05;99395.94;5093367;28;20118;-71
2021/01/20 04:35:40;;;;;;;45.85;21.73;;;;;;;0.73;93.09;99386.69;5093487;28;20445;-71
2021/01/20 04:38:09;;;;;;;50.08;23.50;;;;;;;0.66;93.02;99377.25;5093647;28;20131;-72
2021/01/20 04:40:36;;;;;;;53.00;22.48;;;;;;;0.72;93.02;99387.47;5093311;28;20072;-72
2021/01/20 04:43:05;;;;;;;45.75;21.25;;;;;;;0.64;93.06;99368.81;5093396;28;20048;-71
2021/01/20 04:45:33;;;;;;;49.80;20.97;;;;;;;0.71;92.57;99389.97;5093344;28;20123;-71
2021/01/20 04:48:03;;;;;;;56.78;23.10;;;;;;;0.73;93.21;99398.38;5093349;28;20314;-71
2021/01/20 04:50:32;;;;;;;52.38;22.30;;;;;;;0.65;92.80;99398.13;5093263;28;20060;-71
2021/01/20 04:53:01;;;;;;;54.35;23.60;;;;;;;0.71;92.89;99410.91;5093249;28;20048;-72
2021/01/20 04:55:30;;;;;;;54.20;22.50;;;;;;;0.72;92.68;99407.56;5093249;28;20517;-72
2021/01/20 04:57:58;;;;;;;52.17;23.10;;;;;;;0.72;93.05;99406.75;5093160;28;20056;-72
2021/01/20 05:00:29;;;;;;;52.08;22.23;;;;;;;0.65;93.08;99395.63;5093135;28;20591;-72
2021/01/20 05:02:58;;;;;;;59.88;24.95;;;;;;;0.70;92.90;99404.16;5093279;28;20505;-72
2021/01/20 05:05:27;;;;;;;58.78;24.60;;;;;;;0.70;92.87;99409.19;5097089;28;20130;-72
2021/01/20 05:07:54;;;;;;;60.35;25.50;;;;;;;0.68;93.01;99400.75;5097028;28;20052;-72
2021/01/20 05:10:22;;;;;;;56.13;25.38;;;;;;;0.68;93.24;99410.78;5097129;28;20059;-71
2021/01/20 05:12:50;;;;;;;64.00;25.02;;;;;;;0.65;93.05;99409.03;5096813;28;20052;-72
2021/01/20 05:15:30;;;;;;;54.67;24.98;;;;;;;0.48;93.05;99386.69;5096770;28;20040;-71
2021/01/20 05:18:00;;;;;;;57.45;25.27;;;;;;;0.70;92.83;99419.22;5096831;28;20398;-72
2021/01/20 05:20:31;;;;;;;70.00;30.17;;;;;;;0.71;92.88;99425.97;5096655;28;20119;-72
2021/01/20 05:23:00;;;;;;;75.10;31.98;;;;;;;0.73;92.92;99423.50;5096686;28;20078;-71
2021/01/20 05:25:30;;;;;;;65.45;28.73;;;;;;;0.70;93.02;99419.22;5096876;28;20109;-71
2021/01/20 05:27:58;;;;;;;61.10;26.95;;;;;;;0.52;92.64;99393.50;5096513;28;20056;-72
2021/01/20 05:30:25;;;;;;;67.07;29.48;;;;;;;0.72;92.83;99427.66;5096758;28;20402;-72
2021/01/20 05:33:00;;;;;;;65.13;28.35;;;;;;;0.71;93.13;99435.16;5096356;28;20052;-71
2021/01/20 05:35:28;;;;;;;59.45;27.15;;;;;;;0.71;92.88;99436.00;5096447;28;20101;-71
2021/01/20 05:37:55;;;;;;;67.97;28.58;;;;;;;0.72;93.10;99431.84;5096253;28;20440;-71
2021/01/20 05:40:23;;;;;;;64.30;28.75;;;;;;;0.74;93.02;99437.78;5096220;28;20119;-72
2021/01/20 05:42:53;;;;;;;62.33;26.92;;;;;;;0.74;92.50;99431.09;5096191;28;20574;-72
2021/01/20 05:45:22;;;;;;;65.43;26.88;;;;;;;0.73;93.22;99439.44;5096186;28;20050;-72
2021/01/20 05:48:06;;;;;;;66.18;27.45;;;;;;;0.73;92.93;99439.44;5096082;28;20056;-72
2021/01/20 05:50:36;;;;;;;73.30;28.48;;;;;;;0.75;92.81;99442.84;5096084;28;20109;-72
2021/01/20 05:53:10;;;;;;;69.70;27.63;;;;;;;0.76;92.79;99449.59;5095987;28;20052;-72
2021/01/20 05:55:39;;;;;;;64.05;27.40;;;;;;;0.76;92.86;99448.72;5096176;28;20072;-72
2021/01/20 05:58:07;;;;;;;70.25;27.60;;;;;;;0.75;93.11;99437.81;5095578;28;20494;-71
2021/01/20 06:00:35;;;;;;;73.80;28.63;;;;;;;0.74;93.08;99445.31;5096329;28;20044;-72
2021/01/20 06:03:03;;;;;;;75.82;28.88;;;;;;;0.73;92.88;99449.47;5094663;28;20048;-72
2021/01/20 06:05:35;;;;;;;70.30;28.42;;;;;;;0.75;92.87;99447.84;5095765;28;20121;-72
2021/01/20 06:08:03;;;;;;;76.85;28.20;;;;;;;0.75;92.97;99457.91;5095735;28;20087;-72
2021/01/20 06:10:31;;;;;;;72.72;29.80;;;;;;;0.78;92.96;99450.47;5095580;28;20052;-72
2021/01/20 06:13:00;;;;;;;80.07;30.45;;;;;;;0.79;93.13;99459.75;5061591;28;20044;-72
2021/01/20 06:15:28;;;;;;;56.38;24.48;;;;;;;0.79;92.72;99469.78;5094876;28;20056;-72
2021/01/20 06:17:58;;;;;;;71.03;28.48;;;;;;;0.77;93.23;99468.03;5095534;28;20059;-72
2021/01/20 06:20:26;;;;;;;66.13;26.65;;;;;;;0.77;93.29;99461.31;5095387;28;20406;-72
2021/01/20 06:22:57;;;;;;;65.55;26.10;;;;;;;0.77;93.18;99466.34;5095991;28;20596;-72
2021/01/20 06:25:29;;;;;;;62.13;26.13;;;;;;;0.79;93.09;99484.00;5095387;28;20055;-72
2021/01/20 06:28:02;;;;;;;63.53;27.73;;;;;;;0.78;93.22;99483.13;5095423;28;20070;-72
2021/01/20 06:30:34;;;;;;;66.97;26.25;;;;;;;0.79;92.56;99484.00;5095278;28;20051;-73
2021/01/20 06:33:06;;;;;;;72.63;27.58;;;;;;;0.72;92.86;99470.34;5095316;28;20052;-72
2021/01/20 06:35:41;;;;;;;70.72;27.85;;;;;;;0.74;93.15;99475.44;5095149;28;20047;-72
2021/01/20 06:38:31;;;;;;;68.65;26.92;;;;;;;0.78;93.02;99483.13;5094023;28;20526;-71
2021/01/20 06:41:02;;;;;;;62.42;24.67;;;;;;;0.75;93.39;99488.03;5095024;28;20044;-71
2021/01/20 06:43:47;;;;;;;59.33;24.65;;;;;;;0.74;92.78;99498.03;5095038;28;20493;-72
2021/01/20 06:46:26;;;;;;;62.25;25.38;;;;;;;0.73;92.81;99492.16;5095235;28;20179;-72
2021/01/20 06:49:12;;;;;;;75.50;27.73;;;;;;;0.73;93.31;99489.66;5094985;28;20131;-72
2021/01/20 06:51:42;;;;;;;68.65;25.50;;;;;;;0.76;92.97;99493.94;5095024;28;20040;-71
2021/01/20 06:54:15;;;;;;;64.07;26.65;;;;;;;0.74;92.81;99501.41;5094837;28;20075;-71
2021/01/20 06:56:49;;;;;;;64.65;25.25;;;;;;;0.76;93.11;99503.97;5095097;28;20048;-72
2021/01/20 06:59:26;;;;;;;69.70;27.65;;;;;;;0.78;93.25;99512.41;5094772;28;20496;-72
2021/01/20 07:02:09;;;;;;;70.40;26.17;;;;;;;0.78;92.69;99523.31;5094645;28;20056;-72
2021/01/20 07:04:57;;;;;;;73.10;27.35;;;;;;;0.80;93.03;99519.19;5094644;28;20048;-71
2021/01/20 07:07:46;;;;;;;73.45;28.02;;;;;;;0.82;93.00;99521.75;5094562;28;20055;-72
2021/01/20 07:10:14;;;;;;;72.95;27.00;;;;;;;0.83;93.19;99521.81;5094797;28;20044;-72
2021/01/20 07:13:14;;;;;;;80.90;28.52;;;;;;;0.85;93.04;99515.19;5094398;28;20059;-72
2021/01/20 07:15:48;;;;;;;79.68;28.60;;;;;;;0.88;93.31;99520.31;5094405;28;20040;-72
2021/01/20 07:18:17;;;;;;;67.45;28.13;;;;;;;0.92;93.27;99524.66;5094361;28;20128;-72
2021/01/20 07:20:46;;;;;;;73.78;27.17;;;;;;;0.95;92.66;99522.25;5095014;28;20143;-71
2021/01/20 07:23:14;;;;;;;81.07;32.85;;;;;;;0.96;93.06;99523.94;5094257;28;20523;-72
2021/01/20 07:25:45;;;;;;;74.70;31.33;;;;;;;1.02;92.80;99514.13;5094246;28;20062;-72
2021/01/20 07:28:14;;;;;;;73.72;27.67;;;;;;;1.06;93.06;99513.41;5093355;28;20060;-71
2021/01/20 07:30:42;;;;;;;81.83;28.47;;;;;;;1.07;93.06;99515.13;5075982;28;20052;-72
2021/01/20 07:33:20;;;;;;;84.75;29.55;;;;;;;1.10;92.88;99522.78;5094400;28;20121;-72
2021/01/20 07:35:50;;;;;;;84.15;28.75;;;;;;;1.15;93.06;99523.75;5094092;28;20070;-71
2021/01/20 07:38:18;;;;;;;80.43;27.83;;;;;;;1.18;92.85;99526.38;5094017;28;20486;-71
2021/01/20 07:40:46;;;;;;;73.93;28.30;;;;;;;1.26;93.38;99532.53;5093897;28;20063;-72
2021/01/20 07:43:22;;;;;;;72.25;26.92;;;;;;;1.30;93.07;99533.47;5093957;28;20051;-72
2021/01/20 07:45:51;;;;;;;75.15;26.45;;;;;;;1.31;93.29;99533.53;5093887;28;20516;-72
2021/01/20 07:48:29;;;;;;;78.25;28.42;;;;;;;1.33;93.32;99542.00;5093918;28;20052;-71
2021/01/20 07:50:57;;;;;;;80.78;30.77;;;;;;;1.38;93.34;99543.78;5094112;28;20042;-72
2021/01/20 07:53:25;;;;;;;76.38;29.52;;;;;;;1.42;93.06;99538.91;5094143;28;20044;-72
2021/01/20 07:55:54;;;;;;;81.70;29.15;;;;;;;1.46;92.86;99542.38;5093611;28;20044;-71
2021/01/20 07:58:27;;;;;;;83.65;29.70;;;;;;;1.53;93.32;99539.28;5093609;28;20060;-72
2021/01/20 08:00:55;;;;;;;72.30;27.95;;;;;;;1.58;92.94;99537.75;5093621;28;20489;-71
2021/01/20 08:03:32;;;;;;;71.78;26.30;;;;;;;1.56;93.20;99556.97;5092089;28;20055;-72
2021/01/20 08:06:02;;;;;;;73.35;28.10;;;;;;;1.57;92.75;99556.16;5078789;28;20384;-71
2021/01/20 08:08:30;;;;;;;71.05;27.35;;;;;;;1.62;92.92;99560.53;5073442;28;20056;-71
2021/01/20 08:11:00;;;;;;;74.90;26.13;;;;;;;1.68;93.33;99559.91;5073349;28;20041;-71
2021/01/20 08:13:30;;;;;;;69.13;26.40;;;;;;;1.33;92.48;99493.38;5075389;28;20529;-71
2021/01/20 08:15:58;;;;;;;76.97;27.27;;;;;;;1.90;93.23;99567.28;5073415;28;20502;-70
2021/01/20 08:18:27;;;;;;;78.28;28.67;;;;;;;2.03;93.06;99560.19;5073351;28;20045;-71
2021/01/20 08:20:57;;;;;;;75.43;27.75;;;;;;;1.91;93.10;99523.72;5079324;28;20052;-70
2021/01/20 08:23:45;;;;;;;77.97;26.63;;;;;;;2.23;92.62;99573.34;5073342;28;20047;-70
2021/01/20 08:26:13;;;;;;;72.35;27.15;;;;;;;2.20;92.37;99568.25;5073271;28;20344;-69
2021/01/20 08:29:05;;;;;;;70.47;26.90;;;;;;;2.25;92.97;99569.25;5073072;28;20521;-69
2021/01/20 08:31:35;;;;;;;67.38;26.15;;;;;;;2.31;92.57;99561.88;5073290;28;20052;-69
2021/01/20 08:34:14;;;;;;;62.78;25.83;;;;;;;2.51;92.52;99560.81;5077412;28;20387;-70
2021/01/20 08:36:57;;;;;;;67.57;29.30;;;;;;;2.65;92.96;99564.56;5093449;28;20497;-70
2021/01/20 08:39:28;;;;;;;67.55;26.92;;;;;;;2.66;92.48;99573.81;5084559;28;20052;-69
2021/01/20 08:42:17;;;;;;;62.03;26.00;;;;;;;2.68;92.87;99578.91;5077116;28;20055;-69
2021/01/20 08:45:06;;;;;;;63.45;27.30;;;;;;;2.69;92.50;99591.56;5077420;28;20402;-70
2021/01/20 08:47:42;;;;;;;;;;;;;;;2.68;92.94;99594.03;5077676;28;20056;-69
2021/01/20 08:50:11;;;;;;;65.35;25.65;;;;;;;2.71;92.11;99596.66;5076932;28;19920;-69
2021/01/20 08:52:43;;;;;;;68.15;27.35;;;;;;;2.68;92.23;99589.84;5076955;28;20538;-70
2021/01/20 08:55:20;;;;;;;67.57;27.98;;;;;;;2.46;92.18;99546.38;5076826;28;20060;-69
2021/01/20 08:58:19;;;;;;;60.65;25.40;;;;;;;2.78;92.67;99587.59;5076639;28;20063;-68
2021/01/20 09:00:49;;;;;;;46.30;19.17;;;;;;;2.79;92.34;99591.81;5076962;28;20483;-70
2021/01/20 09:03:20;;;;;;;59.40;25.52;;;;;;;2.82;92.44;99596.94;5076768;28;20305;-69
2021/01/20 09:05:49;;;;;;;57.95;25.30;;;;;;;2.85;92.42;99597.91;5076654;28;20048;-69
2021/01/20 09:08:18;;;;;;;67.83;27.90;;;;;;;2.81;92.27;99590.22;5076892;28;20086;-70
2021/01/20 09:10:47;;;;;;;62.88;27.50;;;;;;;2.80;91.63;99603.59;5076417;28;20040;-69
2021/01/20 09:13:17;;;;;;;65.80;27.63;;;;;;;2.70;91.52;99593.28;5076525;28;20045;-70
2021/01/20 09:15:49;;;;;;;68.35;26.95;;;;;;;2.61;91.92;99593.00;5076737;28;20056;-69
2021/01/20 09:18:19;;;;;;;63.67;24.42;;;;;;;2.55;91.38;99592.81;5076748;28;20048;-70
2021/01/20 09:20:47;;;;;;;67.60;25.85;;;;;;;2.52;91.27;99580.13;5076241;28;20076;-70
2021/01/20 09:23:20;;;;;;;69.03;27.52;;;;;;;2.67;91.77;99588.13;5076356;28;20094;-70
2021/01/20 09:25:48;;;;;;;71.45;28.45;;;;;;;2.70;90.95;99588.22;5075009;28;20517;-70
2021/01/20 09:28:16;;;;;;;74.22;27.90;;;;;;;2.78;90.95;99585.94;5076232;28;20384;-70
2021/01/20 09:30:46;;;;;;;73.38;28.58;;;;;;;2.86;90.44;99584.47;5076250;28;20090;-70
2021/01/20 09:33:13;;;;;;;72.03;26.58;;;;;;;2.93;90.34;99580.47;5076158;28;20056;-71
2021/01/20 09:35:44;;;;;;;69.22;27.20;;;;;;;2.91;90.67;99577.03;5076132;28;20044;-71
2021/01/20 09:38:11;;;;;;;65.25;24.20;;;;;;;2.88;90.49;99587.88;5076077;28;20072;-70
2021/01/20 09:40:40;;;;;;;64.63;26.98;;;;;;;2.90;90.65;99577.84;5075922;28;20443;-72
2021/01/20 09:43:08;;;;;;;62.53;25.25;;;;;;;2.80;89.66;99570.84;5075931;28;20075;-71
2021/01/20 09:45:37;;;;;;;70.82;26.45;;;;;;;2.71;90.44;99579.84;5076018;28;20072;-71
2021/01/20 09:48:06;;;;;;;69.07;26.85;;;;;;;2.42;89.90;99540.41;5075737;28;20128;-71
2021/01/20 09:50:35;;;;;;;64.15;24.90;;;;;;;2.65;89.87;99578.81;5074916;28;20044;-71
2021/01/20 09:53:05;;;;;;;66.60;25.73;;;;;;;2.70;89.93;99567.22;5074555;28;20061;-71
2021/01/20 09:55:33;;;;;;;72.57;27.48;;;;;;;2.75;89.67;99579.94;5089604;28;20047;-71
2021/01/20 09:58:03;;;;;;;74.68;28.77;;;;;;;2.68;89.54;99559.63;5094100;28;20075;-71
2021/01/20 10:00:31;;;;;;;71.95;25.63;;;;;;;2.61;89.57;99546.81;5075626;28;20548;-72
2021/01/20 10:03:00;;;;;;;80.28;35.00;;;;;;;2.88;90.10;99567.72;5077649;28;20120;-73
2021/01/20 10:05:29;;;;;;;69.10;29.63;;;;;;;2.93;89.40;99565.34;5075838;28;20044;-72
2021/01/20 10:07:57;;;;;;;78.43;32.80;;;;;;;2.98;89.35;99561.25;5075585;28;20079;-73
2021/01/20 10:10:25;;;;;;;72.00;28.70;;;;;;;2.83;88.98;99530.63;5076300;28;20044;-73
2021/01/20 10:12:54;;;;;;;66.88;27.65;;;;;;;3.01;89.26;99556.31;5077805;28;20048;-72
2021/01/20 10:15:22;;;;;;;56.45;24.58;;;;;;;3.01;88.74;99556.31;5075354;28;20044;-73
2021/01/20 10:17:52;;;;;;;59.25;24.25;;;;;;;3.02;88.14;99550.47;5075364;28;20132;-72
2021/01/20 10:20:23;;;;;;;59.22;24.70;;;;;;;3.08;88.68;99550.63;5075232;28;20049;-72
2021/01/20 10:22:51;;;;;;;60.65;23.25;;;;;;;3.06;88.79;99537.13;5075250;28;20052;-72
2021/01/20 10:25:18;;;;;;;61.08;25.27;;;;;;;3.16;88.29;99546.66;5075155;28;20033;-72
2021/01/20 10:27:47;;;;;;;63.53;26.27;;;;;;;3.16;88.30;99541.59;5075045;28;20387;-73
2021/01/20 10:30:16;;;;;;;59.75;25.30;;;;;;;3.17;87.60;99535.72;5075041;28;20055;-72
2021/01/20 10:32:44;;;;;;;64.70;25.30;;;;;;;3.26;88.19;99520.88;5075034;28;20103;-71
2021/01/20 10:35:18;;;;;;;65.13;24.60;;;;;;;3.34;86.81;99526.94;5075000;28;20049;-70
2021/01/20 10:37:46;;;;;;;64.65;24.90;;;;;;;3.22;87.05;99524.09;5074990;28;20045;-71
2021/01/20 10:40:15;;;;;;;71.35;24.45;;;;;;;3.23;86.88;99525.81;5074729;28;20047;-72
2021/01/20 10:42:43;;;;;;;68.40;26.52;;;;;;;3.24;86.78;99520.81;5074906;28;20052;-72
2021/01/20 10:45:13;;;;;;;60.42;25.15;;;;;;;3.44;87.00;99521.31;5074776;28;20117;-72
2021/01/20 10:47:40;;;;;;;74.07;31.33;;;;;;;3.57;87.15;99525.00;5074739;28;20058;-72
2021/01/20 10:50:09;;;;;;;66.10;30.27;;;;;;;3.65;87.20;99520.97;5074709;28;20049;-71
2021/01/20 10:52:37;;;;;;;65.43;27.08;;;;;;;3.99;86.35;99519.28;5074584;28;20453;-71
2021/01/20 10:55:05;;;;;;;63.10;26.50;;;;;;;4.30;86.52;99514.88;5074565;28;20044;-71
2021/01/20 10:57:33;;;;;;;58.65;24.52;;;;;;;4.35;86.25;99523.41;5074347;28;20135;-71
2021/01/20 11:00:01;;;;;;;50.83;21.80;;;;;;;4.21;85.31;99509.66;5074529;28;20056;-71
2021/01/20 11:02:33;;;;;;;45.67;18.17;;;;;;;4.12;84.89;99509.44;5074121;28;20505;-71
2021/01/20 11:05:01;;;;;;;46.88;20.17;;;;;;;3.98;84.19;99512.50;5074409;28;20068;-70
2021/01/20 11:07:29;;;;;;;38.30;17.23;;;;;;;3.94;84.38;99503.16;5074345;28;20056;-69
2021/01/20 11:09:58;;;;;;;44.17;18.38;;;;;;;4.11;84.39;99512.78;5074230;28;20498;-69
2021/01/20 11:12:26;;;;;;;37.30;15.20;;;;;;;4.40;84.08;99509.22;5074191;28;20048;-69
2021/01/20 11:14:54;;;;;;;44.15;17.27;;;;;;;4.80;83.83;99499.06;5074214;28;20052;-69
2021/01/20 11:17:21;;;;;;;37.78;16.77;;;;;;;4.81;82.97;99499.94;5072821;28;20052;-68
2021/01/20 11:19:50;;;;;;;36.80;15.95;;;;;;;4.65;82.51;99498.78;5074166;28;20059;-67
2021/01/20 11:22:18;;;;;;;36.05;15.98;;;;;;;4.61;82.36;99494.47;5074090;28;20407;-66
2021/01/20 11:24:58;;;;;;;36.05;15.93;;;;;;;4.83;82.09;99498.28;5074012;28;20098;-66
2021/01/20 11:27:25;;;;;;;37.17;14.93;;;;;;;4.88;81.12;99491.63;5074052;28;20097;-66
2021/01/20 11:29:53;;;;;;;36.00;15.98;;;;;;;4.82;80.77;99497.44;5073853;28;20083;-67
2021/01/20 11:32:23;;;;;;;39.60;16.58;;;;;;;4.96;80.74;99485.06;5072789;28;20049;-68
2021/01/20 11:34:52;;;;;;;35.05;16.38;;;;;;;5.05;80.51;99483.53;5073871;28;20080;-69
2021/01/20 11:37:19;;;;;;;33.13;14.68;;;;;;;5.06;79.77;99486.94;5073860;28;20044;-69
2021/01/20 11:39:47;;;;;;;34.40;14.50;;;;;;;5.08;79.68;99473.50;5073681;28;20051;-70
2021/01/20 11:42:16;;;;;;;34.17;13.93;;;;;;;5.21;79.23;99472.84;5073768;28;20072;-69
2021/01/20 11:44:43;;;;;;;28.73;14.18;;;;;;;5.25;79.49;99476.31;5073789;28;20052;-70
2021/01/20 11:47:11;;;;;;;33.00;14.15;;;;;;;5.03;78.69;99447.25;5073727;28;20053;-70